Saturday, January 20, 2018, 10:05 AM EST
Back to Local

KART, Watertown International Airport

Location: Dexter, NY, United States Lat: 43.983
Local Time: 10:05 AM EST (15:05 GMT) Lon: -76.033
Time Zone: US/Eastern Elev: 324 ft

Show me the last for .
Show Decoded

2018-01-20 08:56 METAR KART 201356Z AUTO 23022G32KT 10SM SCT120 04/M02 A2976 RMK AO2 PK WND
                 23033/1332 SLP080 T00391017 TSNO =
2018-01-20 07:56 METAR KART 201256Z AUTO 23020G28KT 10SM CLR 03/M02 A2972 RMK AO2 PK WND
                 23034/1212 SLP069 T00281017 TSNO =
2018-01-20 06:56 METAR KART 201156Z AUTO 24019G34KT 10SM CLR 03/M02 A2970 RMK AO2 PK WND
                 23034/1155 SLP062 T00331022 10039 20022 53028 TSNO =
2018-01-20 05:56 METAR KART 201056Z AUTO 23018G24KT 10SM CLR 03/M03 A2968 RMK AO2 PK WND
                 21028/0959 SLP055 T00281033 TSNO =
2018-01-20 04:56 METAR KART 200956Z AUTO 21015G25KT 10SM CLR 03/M05 A2963 RMK AO2 PK WND
                 22028/0935 SLP038 T00331050 TSNO =
2018-01-20 03:56 METAR KART 200856Z AUTO 21018G28KT 10SM CLR 03/M05 A2962 RMK AO2 PK WND
                 21028/0852 SLP034 T00331050 56011 TSNO =
2018-01-20 01:56 METAR KART 200656Z AUTO 19012G23KT 10SM CLR 03/M05 A2964 RMK AO2 SLP040
                 T00331050 TSNO =
2018-01-20 00:56 METAR KART 200556Z AUTO 20011G20KT 10SM CLR 03/M06 A2965 RMK AO2 SLP045
                 T00331056 10033 21011 58026 TSNO =
2018-01-19 23:56 METAR KART 200456Z AUTO 19014G21KT 10SM CLR 03/M06 A2968 RMK AO2 SLP055
                 T00281056 400281050 TSNO =
2018-01-19 22:56 METAR KART 200356Z AUTO 20011G18KT 10SM CLR 02/M06 A2970 RMK AO2 SLP063
                 T00221056 TSNO =
2018-01-19 21:56 METAR KART 200256Z AUTO 19010G19KT 10SM CLR 02/M06 A2973 RMK AO2 SLP073
                 T00221061 58027 TSNO =
2018-01-19 20:56 METAR KART 200156Z AUTO 19006KT 10SM CLR 00/M07 A2976 RMK AO2 SLP084 T00001072
                 TSNO =
2018-01-19 19:56 METAR KART 200056Z AUTO 19007KT 9SM BKN120 M01/M07 A2979 RMK AO2 SLP094
                 T10061072 TSNO =
2018-01-19 18:56 METAR KART 192356Z AUTO 19006KT 9SM OVC110 M01/M07 A2981 RMK AO2 SLP101
                 T10111072 10006 21011 58015 TSNO =
2018-01-19 17:56 METAR KART 192256Z AUTO 20006KT 7SM CLR M01/M07 A2984 RMK AO2 SLP109 T10111067
                 TSNO =
2018-01-19 16:56 METAR KART 192156Z AUTO 22007KT 7SM CLR M01/M06 A2984 RMK AO2 SLP110 T10061061
                 TSNO =
2018-01-19 15:56 METAR KART 192056Z AUTO 23013KT 7SM SCT028 00/M04 A2986 RMK AO2 SLP117 T00001044
                 55008 TSNO =
2018-01-19 14:56 METAR KART 191956Z AUTO 23012KT 6SM HZ OVC026 00/M04 A2985 RMK AO2 SLP115
                 T00001039 TSNO =
2018-01-19 13:56 METAR KART 191856Z AUTO 24012G19KT 5SM HZ OVC023 M01/M04 A2988 RMK AO2 SLP124
                 T10061039 TSNO =
2018-01-19 12:56 METAR KART 191756Z AUTO 24011G19KT 5SM HZ OVC021 M01/M04 A2988 RMK AO2 SLP125
                 60000 T10061039 11006 21033 58013 TSNO =
2018-01-19 11:56 METAR KART 191656Z AUTO 23012KT 3SM HZ OVC017 M01/M03 A2990 RMK AO2 SLP131
                 T10061033 TSNO =
2018-01-19 11:39 METAR KART 191639Z AUTO 23012G20KT 3SM HZ OVC015 M01/M03 A2991 RMK AO2 T10061033
                 TSNO =
2018-01-19 11:31 METAR KART 191631Z AUTO 23013G17KT 3SM BR OVC013 M01/M03 A2992 RMK AO2 T10061028
                 TSNO =
2018-01-19 11:01 METAR KART 191601Z AUTO 20006KT 2SM BR OVC012 M03/M05 A2992 RMK AO2 T10281050
                 TSNO =
2018-01-19 10:51 METAR KART 191551Z AUTO 18006KT 1 3/4SM BR OVC014 M03/M05 A2991 RMK AO2 SNE07
                 SLP136 P0000 T10281050 TSNO =
2018-01-19 10:50 METAR KART 191550Z AUTO 18007KT 1 3/4SM BR OVC014 M03/M05 A2992 RMK AO2 SNE07
                 P0000 TSNO =
2018-01-19 10:43 METAR KART 191543Z AUTO 18005KT 2 1/2SM BR OVC016 M03/M05 A2992 RMK AO2 SNE07
                 P0000 T10331050 TSNO =
2018-01-19 10:27 METAR KART 191527Z AUTO 19007KT 3SM BR OVC016 M03/M05 A2993 RMK AO2 SNE07 P0000
                 T10331050 TSNO =
2018-01-19 10:18 METAR KART 191518Z AUTO 19006KT 2SM BR OVC014 M03/M04 A2992 RMK AO2 SNE07 P0000
                 T10281039 TSNO =

Support USWX by starting your Amazon purchase here.